createdAt,value
2019-04-10T00:01:25.667Z,99.90
2019-04-10T00:05:31.851Z,99.90
2019-04-10T00:09:36.893Z,99.90
2019-04-10T00:13:42.850Z,99.90
2019-04-10T00:17:49.714Z,99.90
2019-04-10T00:21:55.627Z,99.90
2019-04-10T00:26:01.444Z,99.90
2019-04-10T00:30:07.550Z,99.90
2019-04-10T00:34:13.533Z,99.90
2019-04-10T00:38:19.759Z,99.90
2019-04-10T00:42:25.994Z,99.90
2019-04-10T00:46:30.993Z,99.90
2019-04-10T00:50:36.973Z,99.90
2019-04-10T00:54:42.214Z,99.90
2019-04-10T00:58:47.879Z,99.90
2019-04-10T01:02:54.182Z,99.90
2019-04-10T01:07:00.111Z,99.90
2019-04-10T01:11:06.503Z,99.90
2019-04-10T01:15:12.080Z,99.90
2019-04-10T01:19:17.549Z,99.90
2019-04-10T01:23:22.627Z,99.90
2019-04-10T01:27:27.834Z,99.90
2019-04-10T01:31:32.837Z,99.90
2019-04-10T01:35:38.348Z,99.90
2019-04-10T01:39:43.448Z,99.90
2019-04-10T01:43:48.860Z,99.90
2019-04-10T01:47:53.933Z,99.90
2019-04-10T01:51:59.467Z,99.90
2019-04-10T01:56:05.268Z,99.90
2019-04-10T02:00:13.229Z,99.90
2019-04-10T02:04:18.440Z,99.90
2019-04-10T02:08:23.636Z,99.90
2019-04-10T02:12:28.689Z,99.90
2019-04-10T02:16:34.667Z,99.90
2019-04-10T02:20:39.681Z,99.90
2019-04-10T02:24:44.693Z,99.90
2019-04-10T02:28:49.771Z,99.90
2019-04-10T02:32:54.774Z,99.90
2019-04-10T02:37:00.645Z,99.90
2019-04-10T02:41:06.041Z,99.90
2019-04-10T02:45:14.696Z,99.90
2019-04-10T02:49:22.481Z,99.90
2019-04-10T02:53:27.514Z,99.90
2019-04-10T02:57:34.797Z,99.90
2019-04-10T03:01:39.942Z,99.90
2019-04-10T03:05:46.575Z,99.90
2019-04-10T03:10:02.177Z,99.90
2019-04-10T03:13:59.311Z,99.90
2019-04-10T03:18:04.893Z,99.90
2019-04-10T03:22:10.508Z,99.90
2019-04-10T03:26:15.625Z,99.90
2019-04-10T03:30:22.787Z,99.90
2019-04-10T03:34:33.201Z,99.90
2019-04-10T03:38:47.346Z,99.90
2019-04-10T03:42:43.297Z,99.90
2019-04-10T03:46:49.056Z,99.90
2019-04-10T03:50:54.295Z,99.90
2019-04-10T03:54:59.286Z,99.90
2019-04-10T03:59:04.289Z,99.90
2019-04-10T04:03:09.297Z,99.90
2019-04-10T04:07:15.380Z,99.90
2019-04-10T04:11:20.454Z,99.90
2019-04-10T04:15:26.122Z,99.90
2019-04-10T04:19:31.133Z,99.90
2019-04-10T04:23:36.145Z,99.90
2019-04-10T04:27:42.057Z,99.90
2019-04-10T04:31:47.085Z,99.90
2019-04-10T04:35:53.202Z,99.90
2019-04-10T04:39:58.422Z,99.90
2019-04-10T04:44:03.962Z,99.90
2019-04-10T04:48:09.826Z,99.90
2019-04-10T04:52:16.165Z,99.90
2019-04-10T04:56:21.963Z,99.90
2019-04-10T05:00:27.811Z,99.90
2019-04-10T05:04:33.748Z,99.90
2019-04-10T05:08:39.875Z,99.90
2019-04-10T05:12:45.222Z,99.90
2019-04-10T05:16:50.267Z,99.90
2019-04-10T05:20:55.262Z,99.90
2019-04-10T05:25:00.682Z,99.90
2019-04-10T05:29:05.773Z,99.90
2019-04-10T05:33:10.753Z,99.90
2019-04-10T05:37:15.764Z,99.90
2019-04-10T05:41:21.669Z,99.90
2019-04-10T05:45:27.633Z,99.90
2019-04-10T05:49:33.166Z,99.90
2019-04-10T05:53:38.157Z,99.90
2019-04-10T05:57:43.136Z,99.90
2019-04-10T06:01:48.531Z,99.90
2019-04-10T06:05:54.703Z,99.90
2019-04-10T06:10:04.800Z,99.90
2019-04-10T06:14:06.402Z,99.90
2019-04-10T06:18:12.804Z,99.90
2019-04-10T06:22:18.715Z,99.90
2019-04-10T06:26:23.878Z,99.90
2019-04-10T06:30:30.067Z,99.20
2019-04-10T06:34:36.298Z,98.70
2019-04-10T06:38:41.342Z,98.10
2019-04-10T06:42:50.772Z,98.00
2019-04-10T06:46:55.733Z,97.50
2019-04-10T06:51:01.939Z,96.90
2019-04-10T06:55:07.741Z,95.70
2019-04-10T06:59:14.080Z,94.20
2019-04-10T07:03:19.495Z,93.80
2019-04-10T07:07:27.222Z,94.30
2019-04-10T07:11:32.665Z,93.60
2019-04-10T07:15:40.937Z,92.80
2019-04-10T07:19:45.965Z,92.60
2019-04-10T07:23:52.379Z,93.00
2019-04-10T07:27:58.361Z,93.50
2019-04-10T07:32:07.810Z,93.60
2019-04-10T07:36:12.871Z,92.90
2019-04-10T07:40:18.619Z,93.60
2019-04-10T07:44:23.924Z,91.30
2019-04-10T07:48:29.436Z,81.10
2019-04-10T07:52:34.978Z,75.70
2019-04-10T07:56:41.682Z,76.20
2019-04-10T08:00:49.254Z,78.10
2019-04-10T08:04:55.850Z,80.10
2019-04-10T08:09:01.323Z,76.40
2019-04-10T08:13:08.605Z,65.80
2019-04-10T08:17:14.335Z,53.20
2019-04-10T08:21:19.804Z,47.10
2019-04-10T08:25:27.010Z,45.00
2019-04-10T08:29:32.393Z,40.80
2019-04-10T08:33:38.527Z,35.30
2019-04-10T08:37:45.167Z,34.90
2019-04-10T08:41:50.582Z,37.40
2019-04-10T08:45:56.847Z,33.50
2019-04-10T08:50:02.165Z,31.80
2019-04-10T08:54:08.601Z,31.40
2019-04-10T08:58:14.482Z,34.40
2019-04-10T09:02:20.110Z,37.50
2019-04-10T09:06:25.425Z,37.60
2019-04-10T09:10:31.782Z,39.40
2019-04-10T09:14:37.189Z,40.10
2019-04-10T09:18:42.521Z,37.20
2019-04-10T09:23:10.325Z,36.00
2019-04-10T09:26:54.929Z,34.80
2019-04-10T09:31:00.197Z,34.30
2019-04-10T09:35:06.922Z,36.50
2019-04-10T09:39:13.670Z,40.60
2019-04-10T09:43:18.966Z,38.50
2019-04-10T09:47:24.900Z,35.70
2019-04-10T09:51:30.150Z,36.30
2019-04-10T09:55:36.291Z,39.60
2019-04-10T09:59:42.641Z,40.20
2019-04-10T10:03:49.261Z,39.20
2019-04-10T10:07:56.159Z,36.50
2019-04-10T10:12:03.066Z,36.20
2019-04-10T10:16:10.587Z,36.70
2019-04-10T10:20:16.576Z,35.40
2019-04-10T10:24:22.498Z,38.10
2019-04-10T10:28:28.897Z,37.80
2019-04-10T10:32:35.121Z,39.30
2019-04-10T10:36:44.437Z,43.80
2019-04-10T10:40:47.319Z,41.30
2019-04-10T10:44:52.874Z,37.70
2019-04-10T10:48:58.182Z,40.00
2019-04-10T10:53:04.033Z,35.60
2019-04-10T10:57:09.438Z,38.30
2019-04-10T11:01:15.769Z,43.90
2019-04-10T11:05:21.194Z,40.10
2019-04-10T11:09:26.650Z,41.50
2019-04-10T11:13:33.135Z,41.40
2019-04-10T11:17:39.341Z,42.50
2019-04-10T11:21:46.989Z,40.50
2019-04-10T11:25:52.739Z,35.30
2019-04-10T11:29:59.881Z,35.30
2019-04-10T11:34:08.260Z,34.80
2019-04-10T11:38:13.433Z,38.70
2019-04-10T11:42:21.024Z,41.00
2019-04-10T11:46:29.826Z,43.20
2019-04-10T11:50:34.830Z,43.90
2019-04-10T11:54:41.367Z,45.50
2019-04-10T11:58:53.756Z,46.50
2019-04-10T12:02:57.226Z,46.90
2019-04-10T12:07:02.097Z,48.50
2019-04-10T12:11:10.994Z,45.90
2019-04-10T12:15:14.574Z,46.00
2019-04-10T12:19:19.869Z,47.60
2019-04-10T12:23:27.198Z,48.70
2019-04-10T12:27:33.442Z,48.40
2019-04-10T12:31:39.759Z,47.40
2019-04-10T12:35:45.758Z,47.40
2019-04-10T12:39:51.069Z,47.80
2019-04-10T12:43:56.990Z,47.40
2019-04-10T12:48:02.323Z,46.50
2019-04-10T12:52:08.045Z,46.70
2019-04-10T12:56:13.757Z,48.60
2019-04-10T13:00:25.826Z,46.80
2019-04-10T13:04:32.217Z,46.90
2019-04-10T13:08:52.509Z,46.90
2019-04-10T13:12:45.566Z,46.20
2019-04-10T13:16:52.098Z,47.00
2019-04-10T13:20:57.906Z,47.50
2019-04-10T13:25:05.989Z,47.70
2019-04-10T13:29:12.001Z,47.40
2019-04-10T13:33:17.406Z,47.10
2019-04-10T13:37:22.693Z,48.80
2019-04-10T13:41:28.254Z,50.10
2019-04-10T13:45:35.329Z,47.00
2019-04-10T13:49:40.729Z,46.50
2019-04-10T13:53:46.090Z,46.00
2019-04-10T13:57:51.449Z,47.20
2019-04-10T14:01:57.163Z,48.20
2019-04-10T14:06:03.355Z,49.30
2019-04-10T14:10:10.387Z,49.10
2019-04-10T14:14:16.209Z,48.90
2019-04-10T14:18:22.332Z,49.10
2019-04-10T14:22:27.622Z,48.60
2019-04-10T14:26:48.931Z,49.00
2019-04-10T14:30:51.606Z,48.80
2019-04-10T14:34:56.861Z,47.60
2019-04-10T14:39:10.043Z,48.40
2019-04-10T14:43:10.482Z,48.50
2019-04-10T14:47:17.065Z,49.40
2019-04-10T14:51:22.442Z,47.20
2019-04-10T14:55:27.804Z,47.70
2019-04-10T14:59:33.801Z,48.60
2019-04-10T15:03:40.290Z,48.60
2019-04-10T15:07:46.780Z,49.40
2019-04-10T15:11:53.100Z,48.10
2019-04-10T15:16:00.827Z,48.90
2019-04-10T15:20:06.960Z,49.80
2019-04-10T15:24:13.418Z,49.40
2019-04-10T15:28:18.766Z,50.10
2019-04-10T15:32:25.243Z,51.10
2019-04-10T15:36:31.788Z,51.20
2019-04-10T15:40:37.250Z,49.00
2019-04-10T15:44:43.441Z,50.20
2019-04-10T15:48:49.062Z,49.40
2019-04-10T15:52:55.671Z,50.40
2019-04-10T15:57:02.510Z,48.90
2019-04-10T16:01:10.413Z,48.60
2019-04-10T16:05:17.391Z,49.60
2019-04-10T16:09:25.314Z,50.50
2019-04-10T16:13:32.629Z,49.90
2019-04-10T16:17:41.977Z,49.90
2019-04-10T16:21:47.545Z,50.00
2019-04-10T16:25:54.479Z,51.30
2019-04-10T16:30:03.700Z,50.70
2019-04-10T16:34:09.782Z,51.40
2019-04-10T16:38:16.353Z,50.50
2019-04-10T16:42:22.299Z,51.10
2019-04-10T16:46:28.137Z,50.70
2019-04-10T16:50:34.178Z,51.90
2019-04-10T16:54:40.741Z,52.00
2019-04-10T16:58:46.297Z,51.60
2019-04-10T17:02:52.736Z,52.30
2019-04-10T17:06:58.811Z,52.80
2019-04-10T17:11:07.055Z,53.50
2019-04-10T17:15:12.958Z,55.10
2019-04-10T17:19:19.359Z,54.80
2019-04-10T17:23:24.888Z,55.40
2019-04-10T17:27:30.237Z,55.90
2019-04-10T17:31:35.209Z,56.60
2019-04-10T17:35:40.202Z,57.30
2019-04-10T17:39:45.200Z,57.60
2019-04-10T17:43:51.560Z,58.40
2019-04-10T17:47:57.884Z,59.30
2019-04-10T17:52:04.216Z,60.70
2019-04-10T17:56:10.285Z,60.50
2019-04-10T18:00:22.986Z,60.90
2019-04-10T18:04:28.149Z,62.10
2019-04-10T18:08:33.169Z,62.20
2019-04-10T18:12:38.364Z,63.10
2019-04-10T18:16:44.312Z,63.50
2019-04-10T18:20:49.964Z,63.80
2019-04-10T18:24:56.157Z,64.30
2019-04-10T18:29:02.437Z,64.90
2019-04-10T18:33:08.517Z,65.70
2019-04-10T18:37:15.785Z,66.10
2019-04-10T18:41:22.072Z,66.70
2019-04-10T18:45:28.023Z,67.20
2019-04-10T18:49:33.722Z,68.00
2019-04-10T18:53:39.470Z,69.10
2019-04-10T18:57:45.211Z,69.90
2019-04-10T19:02:03.986Z,71.10
2019-04-10T19:06:10.648Z,71.80
2019-04-10T19:10:15.810Z,72.20
2019-04-10T19:14:20.822Z,72.50
2019-04-10T19:18:25.924Z,72.40
2019-04-10T19:22:31.028Z,72.50
2019-04-10T19:26:36.209Z,72.20
2019-04-10T19:30:47.665Z,73.00
2019-04-10T19:34:52.038Z,72.20
2019-04-10T19:38:57.890Z,71.90
2019-04-10T19:43:04.016Z,72.10
2019-04-10T19:47:10.294Z,72.30
2019-04-10T19:51:16.309Z,73.00
2019-04-10T19:55:21.975Z,74.10
2019-04-10T19:59:27.185Z,73.80
2019-04-10T20:03:32.237Z,75.20
2019-04-10T20:07:37.486Z,75.30
2019-04-10T20:11:46.679Z,75.60
2019-04-10T20:15:49.070Z,76.30
2019-04-10T20:19:56.667Z,76.50
2019-04-10T20:24:00.679Z,77.00
2019-04-10T20:28:06.714Z,77.60
2019-04-10T20:32:12.691Z,78.50
2019-04-10T20:36:17.741Z,78.70
2019-04-10T20:40:22.742Z,79.10
2019-04-10T20:44:28.954Z,79.90
2019-04-10T20:48:34.205Z,80.40
2019-04-10T20:52:40.842Z,80.60
2019-04-10T20:56:46.523Z,81.10
2019-04-10T21:00:51.702Z,82.00
2019-04-10T21:05:03.164Z,82.80
2019-04-10T21:09:05.303Z,83.60
2019-04-10T21:13:12.855Z,84.10
2019-04-10T21:17:18.021Z,84.90
2019-04-10T21:21:24.273Z,85.40
2019-04-10T21:25:29.423Z,86.10
2019-04-10T21:29:44.825Z,86.40
2019-04-10T21:34:07.705Z,86.80
2019-04-10T21:38:13.176Z,87.20
2019-04-10T21:42:22.218Z,87.60
2019-04-10T21:46:24.983Z,88.00
2019-04-10T21:50:30.113Z,88.20
2019-04-10T21:54:35.119Z,88.20
2019-04-10T21:58:40.838Z,88.30
2019-04-10T22:02:46.933Z,88.50
2019-04-10T22:06:59.533Z,88.60
2019-04-10T22:11:04.694Z,88.80
2019-04-10T22:15:11.331Z,88.90
2019-04-10T22:19:16.748Z,89.30
2019-04-10T22:23:22.445Z,89.70
2019-04-10T22:27:27.568Z,90.10
2019-04-10T22:31:34.112Z,90.40
2019-04-10T22:35:39.876Z,90.40
2019-04-10T22:39:44.981Z,90.80
2019-04-10T22:43:50.019Z,91.00
2019-04-10T22:47:56.282Z,91.20
2019-04-10T22:52:02.535Z,91.50
2019-04-10T22:56:08.816Z,91.60
2019-04-10T23:00:18.004Z,92.00
2019-04-10T23:04:24.589Z,92.30
2019-04-10T23:08:31.649Z,92.30
2019-04-10T23:12:48.592Z,92.30
2019-04-10T23:16:44.234Z,92.70
2019-04-10T23:20:50.274Z,92.80
2019-04-10T23:24:56.044Z,92.90
2019-04-10T23:29:02.082Z,93.20
2019-04-10T23:33:08.064Z,93.40
2019-04-10T23:37:13.051Z,93.50
2019-04-10T23:41:19.022Z,93.60
2019-04-10T23:45:24.027Z,93.80
2019-04-10T23:49:29.851Z,93.80
2019-04-10T23:53:34.897Z,94.00
2019-04-10T23:57:39.890Z,94.00
